createdAt,value
2018-06-29T00:00:11.674Z,77.70
2018-06-29T00:01:13.891Z,77.80
2018-06-29T00:02:16.154Z,77.80
2018-06-29T00:03:18.374Z,77.70
2018-06-29T00:04:20.559Z,78.10
2018-06-29T00:05:23.198Z,78.20
2018-06-29T00:06:25.428Z,78.10
2018-06-29T00:08:30.064Z,78.60
2018-06-29T00:09:32.090Z,78.60
2018-06-29T00:10:34.332Z,78.30
2018-06-29T00:11:36.528Z,78.60
2018-06-29T00:12:38.727Z,78.40
2018-06-29T00:13:40.921Z,78.20
2018-06-29T00:14:43.130Z,78.10
2018-06-29T00:15:45.369Z,78.30
2018-06-29T00:16:47.617Z,78.10
2018-06-29T00:17:49.991Z,78.00
2018-06-29T00:18:52.210Z,77.80
2018-06-29T00:19:54.422Z,77.90
2018-06-29T00:20:56.610Z,77.50
2018-06-29T00:21:58.833Z,77.20
2018-06-29T00:23:01.041Z,77.10
2018-06-29T00:24:03.319Z,77.10
2018-06-29T00:25:05.614Z,77.30
2018-06-29T00:26:07.830Z,76.50
2018-06-29T00:27:10.067Z,76.50
2018-06-29T00:28:12.304Z,76.50
2018-06-29T00:29:14.513Z,76.50
2018-06-29T00:30:16.730Z,76.50
2018-06-29T00:31:18.931Z,76.60
2018-06-29T00:32:21.126Z,77.30
2018-06-29T00:33:23.387Z,77.60
2018-06-29T00:34:25.577Z,77.50
2018-06-29T00:35:27.783Z,77.60
2018-06-29T00:36:29.967Z,77.70
2018-06-29T00:37:32.178Z,77.80
2018-06-29T00:38:34.418Z,77.60
2018-06-29T00:39:36.594Z,77.50
2018-06-29T00:40:38.900Z,77.90
2018-06-29T00:41:41.118Z,77.90
2018-06-29T00:42:43.325Z,77.90
2018-06-29T00:43:45.534Z,77.90
2018-06-29T00:44:47.810Z,77.40
2018-06-29T00:45:50.121Z,77.10
2018-06-29T00:46:52.385Z,76.80
2018-06-29T00:47:54.595Z,76.60
2018-06-29T00:48:56.815Z,76.50
2018-06-29T00:49:59.018Z,76.50
2018-06-29T00:51:01.227Z,76.50
2018-06-29T00:52:03.452Z,76.50
2018-06-29T00:53:05.710Z,77.50
2018-06-29T00:54:07.933Z,77.80
2018-06-29T00:55:10.170Z,77.90
2018-06-29T00:56:12.398Z,78.20
2018-06-29T00:57:14.642Z,77.60
2018-06-29T00:58:16.825Z,77.40
2018-06-29T00:59:19.021Z,77.30
2018-06-29T01:00:21.286Z,77.10
2018-06-29T01:01:23.492Z,77.10
2018-06-29T01:02:25.730Z,77.40
2018-06-29T01:03:27.974Z,77.30
2018-06-29T01:04:30.216Z,77.90
2018-06-29T01:05:32.476Z,78.90
2018-06-29T01:06:34.830Z,77.30
2018-06-29T01:07:37.086Z,77.50
2018-06-29T01:08:39.361Z,78.00
2018-06-29T01:09:41.591Z,78.00
2018-06-29T01:10:43.809Z,78.00
2018-06-29T01:11:46.025Z,77.80
2018-06-29T01:12:48.285Z,77.50
2018-06-29T01:13:50.526Z,77.20
2018-06-29T01:14:52.765Z,77.40
2018-06-29T01:15:55.824Z,77.40
2018-06-29T01:16:58.098Z,77.30
2018-06-29T01:18:00.327Z,77.10
2018-06-29T01:19:02.575Z,76.90
2018-06-29T01:20:04.876Z,76.80
2018-06-29T01:21:07.106Z,76.60
2018-06-29T01:22:09.367Z,76.40
2018-06-29T01:23:11.658Z,76.50
2018-06-29T01:24:13.912Z,76.50
2018-06-29T01:25:16.271Z,77.40
2018-06-29T01:26:18.569Z,76.50
2018-06-29T01:27:20.813Z,76.50
2018-06-29T01:28:23.095Z,76.40
2018-06-29T01:29:25.335Z,76.50
2018-06-29T01:30:27.575Z,76.50
2018-06-29T01:31:29.818Z,76.50
2018-06-29T01:32:32.051Z,76.50
2018-06-29T01:33:34.338Z,76.60
2018-06-29T01:35:38.842Z,76.50
2018-06-29T01:36:41.082Z,76.50
2018-06-29T01:37:43.363Z,76.50
2018-06-29T01:38:45.600Z,76.60
2018-06-29T01:39:47.884Z,76.60
2018-06-29T01:41:52.487Z,76.20
2018-06-29T01:42:54.763Z,76.70
2018-06-29T01:43:57.014Z,76.50
2018-06-29T01:44:59.320Z,77.20
2018-06-29T01:46:01.572Z,76.50
2018-06-29T01:47:03.858Z,76.50
2018-06-29T01:48:06.521Z,76.50
2018-06-29T01:49:08.808Z,77.10
2018-06-29T01:50:11.175Z,77.50
2018-06-29T01:51:13.414Z,77.30
2018-06-29T01:52:15.694Z,77.50
2018-06-29T01:53:17.903Z,77.50
2018-06-29T01:54:20.154Z,77.50
2018-06-29T01:55:22.388Z,77.50
2018-06-29T01:56:24.642Z,78.30
2018-06-29T01:57:26.926Z,77.60
2018-06-29T01:58:29.162Z,77.80
2018-06-29T01:59:31.422Z,78.00
2018-06-29T02:00:33.715Z,78.10
2018-06-29T02:01:36.043Z,77.80
2018-06-29T02:02:38.370Z,77.80
2018-06-29T02:03:40.638Z,77.90
2018-06-29T02:04:42.846Z,78.10
2018-06-29T02:05:45.102Z,77.90
2018-06-29T02:07:49.668Z,77.80
2018-06-29T02:08:51.927Z,77.60
2018-06-29T02:09:54.239Z,77.50
2018-06-29T02:10:56.483Z,77.80
2018-06-29T02:11:58.731Z,78.00
2018-06-29T02:13:00.987Z,78.10
2018-06-29T02:14:03.259Z,78.30
2018-06-29T02:15:05.599Z,78.30
2018-06-29T02:16:07.865Z,78.80
2018-06-29T02:17:10.143Z,78.40
2018-06-29T02:18:12.398Z,77.90
2018-06-29T02:19:14.668Z,77.20
2018-06-29T02:20:16.942Z,77.30
2018-06-29T02:22:21.431Z,77.00
2018-06-29T02:23:23.667Z,77.30
2018-06-29T02:24:25.965Z,77.30
2018-06-29T02:25:28.229Z,77.50
2018-06-29T02:26:30.496Z,77.80
2018-06-29T02:27:32.769Z,77.60
2018-06-29T02:28:35.006Z,77.60
2018-06-29T02:29:37.275Z,78.30
2018-06-29T02:30:39.579Z,78.50
2018-06-29T02:31:41.887Z,78.30
2018-06-29T02:32:44.144Z,78.50
2018-06-29T02:33:46.378Z,78.40
2018-06-29T02:35:50.933Z,78.30
2018-06-29T02:36:53.614Z,78.10
2018-06-29T02:37:55.902Z,78.00
2018-06-29T02:38:58.143Z,77.50
2018-06-29T02:40:00.368Z,77.60
2018-06-29T02:41:02.644Z,77.90
2018-06-29T02:42:04.888Z,78.00
2018-06-29T02:43:07.147Z,77.70
2018-06-29T02:44:09.410Z,77.90
2018-06-29T02:45:11.667Z,77.20
2018-06-29T02:46:13.927Z,77.50
2018-06-29T02:47:16.172Z,77.40
2018-06-29T02:48:18.445Z,76.70
2018-06-29T02:49:20.662Z,76.50
2018-06-29T02:50:22.933Z,76.40
2018-06-29T02:51:25.207Z,77.40
2018-06-29T02:52:27.442Z,78.00
2018-06-29T02:53:29.718Z,78.20
2018-06-29T02:54:31.986Z,77.20
2018-06-29T02:55:34.274Z,78.00
2018-06-29T02:56:36.663Z,78.10
2018-06-29T02:57:38.886Z,78.00
2018-06-29T02:58:41.099Z,78.00
2018-06-29T02:59:43.299Z,77.80
2018-06-29T03:00:45.551Z,78.00
2018-06-29T03:01:47.796Z,77.80
2018-06-29T03:02:50.142Z,77.80
2018-06-29T03:03:52.298Z,77.50
2018-06-29T03:04:54.488Z,77.80
2018-06-29T03:05:56.832Z,78.30
2018-06-29T03:06:59.034Z,78.30
2018-06-29T03:08:01.231Z,78.70
2018-06-29T03:09:06.039Z,78.50
2018-06-29T03:10:08.251Z,78.30
2018-06-29T03:11:10.498Z,78.90
2018-06-29T03:12:12.682Z,78.30
2018-06-29T03:13:14.886Z,77.80
2018-06-29T03:14:17.077Z,77.70
2018-06-29T03:15:19.321Z,77.40
2018-06-29T03:16:21.547Z,77.30
2018-06-29T03:17:23.759Z,77.50
2018-06-29T03:18:25.957Z,77.70
2018-06-29T03:19:28.173Z,77.50
2018-06-29T03:20:30.430Z,77.90
2018-06-29T03:21:32.655Z,77.70
2018-06-29T03:22:34.850Z,77.40
2018-06-29T03:23:37.058Z,77.60
2018-06-29T03:25:41.426Z,77.60
2018-06-29T03:26:43.630Z,77.60
2018-06-29T03:27:45.837Z,77.40
2018-06-29T03:29:50.229Z,77.00
2018-06-29T03:30:52.430Z,76.90
2018-06-29T03:31:54.610Z,77.00
2018-06-29T03:32:56.829Z,77.00
2018-06-29T03:33:59.149Z,77.00
2018-06-29T03:35:01.955Z,76.90
2018-06-29T03:36:04.382Z,76.70
2018-06-29T03:37:06.716Z,76.80
2018-06-29T03:38:09.299Z,76.80
2018-06-29T03:39:12.090Z,77.00
2018-06-29T03:40:14.317Z,76.90
2018-06-29T03:41:16.454Z,77.20
2018-06-29T03:42:18.646Z,77.80
2018-06-29T03:44:23.062Z,78.10
2018-06-29T03:45:25.460Z,77.60
2018-06-29T03:46:27.669Z,76.80
2018-06-29T03:47:30.054Z,76.70
2018-06-29T03:48:32.234Z,76.60
2018-06-29T03:49:34.493Z,76.80
2018-06-29T03:50:36.749Z,77.00
2018-06-29T03:51:38.945Z,76.90
2018-06-29T03:52:41.208Z,76.50
2018-06-29T03:53:43.434Z,76.50
2018-06-29T03:54:45.626Z,76.50
2018-06-29T03:55:47.814Z,76.50
2018-06-29T03:57:52.329Z,76.50
2018-06-29T03:58:54.510Z,76.60
2018-06-29T03:59:56.790Z,76.50
2018-06-29T04:00:59.014Z,76.50
2018-06-29T04:02:01.220Z,77.20
2018-06-29T04:03:03.454Z,77.10
2018-06-29T04:05:08.231Z,77.10
2018-06-29T04:06:10.458Z,77.30
2018-06-29T04:07:12.666Z,77.60
2018-06-29T04:08:14.879Z,77.40
2018-06-29T04:09:17.069Z,77.90
2018-06-29T04:10:19.279Z,78.30
2018-06-29T04:11:21.453Z,77.60
2018-06-29T04:12:23.644Z,77.70
2018-06-29T04:13:26.803Z,77.90
2018-06-29T04:14:29.774Z,77.70
2018-06-29T04:15:31.979Z,77.70
2018-06-29T04:16:34.833Z,77.80
2018-06-29T04:17:37.268Z,77.50
2018-06-29T04:18:39.463Z,77.30
2018-06-29T04:19:41.724Z,77.60
2018-06-29T04:20:43.932Z,76.50
2018-06-29T04:21:46.128Z,76.50
2018-06-29T04:22:48.345Z,76.50
2018-06-29T04:23:50.568Z,76.50
2018-06-29T04:25:07.546Z,76.50
2018-06-29T04:26:09.772Z,76.50
2018-06-29T04:27:12.036Z,76.50
2018-06-29T04:28:14.239Z,76.50
2018-06-29T04:29:16.444Z,76.50
2018-06-29T04:30:18.689Z,76.50
2018-06-29T04:31:20.899Z,76.40
2018-06-29T04:32:23.194Z,76.40
2018-06-29T04:33:25.471Z,76.50
2018-06-29T04:35:29.945Z,76.60
2018-06-29T04:36:32.145Z,76.50
2018-06-29T04:37:34.334Z,76.50
2018-06-29T04:38:36.524Z,76.50
2018-06-29T04:39:38.723Z,76.40
2018-06-29T04:41:43.173Z,76.20
2018-06-29T04:42:45.404Z,76.00
2018-06-29T04:43:47.616Z,76.50
2018-06-29T04:44:49.834Z,76.50
2018-06-29T04:45:52.271Z,76.60
2018-06-29T04:47:57.191Z,77.30
2018-06-29T04:49:02.798Z,76.50
2018-06-29T04:50:05.887Z,76.40
2018-06-29T04:51:08.143Z,76.50
2018-06-29T04:52:10.591Z,76.60
2018-06-29T04:53:13.800Z,76.50
2018-06-29T04:54:16.400Z,76.50
2018-06-29T04:55:18.619Z,76.50
2018-06-29T04:56:21.258Z,76.60
2018-06-29T04:57:23.466Z,76.60
2018-06-29T04:58:25.723Z,76.60
2018-06-29T04:59:28.180Z,76.60
2018-06-29T05:00:30.382Z,76.60
2018-06-29T05:01:32.618Z,76.60
2018-06-29T05:02:35.157Z,76.60
2018-06-29T05:03:38.566Z,76.60
2018-06-29T05:04:40.837Z,76.60
2018-06-29T05:05:43.145Z,77.00
2018-06-29T05:06:45.313Z,77.20
2018-06-29T05:07:47.503Z,76.90
2018-06-29T05:08:50.222Z,76.60
2018-06-29T05:09:52.640Z,76.70
2018-06-29T05:10:54.834Z,76.70
2018-06-29T05:11:57.043Z,76.80
2018-06-29T05:12:59.205Z,76.80
2018-06-29T05:14:01.402Z,76.90
2018-06-29T05:15:03.642Z,76.90
2018-06-29T05:17:08.103Z,76.80
2018-06-29T05:18:10.274Z,76.50
2018-06-29T05:19:12.474Z,76.50
2018-06-29T05:21:17.102Z,76.60
2018-06-29T05:22:19.379Z,76.60
2018-06-29T05:23:21.566Z,76.60
2018-06-29T05:24:23.762Z,76.60
2018-06-29T05:25:26.054Z,76.70
2018-06-29T05:26:28.301Z,76.10
2018-06-29T05:27:30.507Z,76.00
2018-06-29T05:28:32.775Z,75.80
2018-06-29T05:29:35.008Z,75.80
2018-06-29T05:30:37.191Z,75.80
2018-06-29T05:31:39.430Z,76.00
2018-06-29T05:32:41.797Z,75.80
2018-06-29T05:34:46.424Z,75.30
2018-06-29T05:35:48.705Z,75.50
2018-06-29T05:37:53.080Z,74.70
2018-06-29T05:38:55.289Z,74.60
2018-06-29T05:39:57.551Z,74.50
2018-06-29T05:40:59.812Z,74.30
2018-06-29T05:42:02.057Z,74.30
2018-06-29T05:43:04.283Z,74.00
2018-06-29T05:44:06.761Z,73.70
2018-06-29T05:45:08.767Z,73.60
2018-06-29T05:47:13.223Z,73.50
2018-06-29T05:48:15.429Z,73.60
2018-06-29T05:49:17.640Z,73.50
2018-06-29T05:50:19.810Z,73.10
2018-06-29T05:51:22.042Z,72.90
2018-06-29T05:52:24.283Z,73.10
2018-06-29T05:53:26.478Z,73.20
2018-06-29T05:54:28.710Z,73.30
2018-06-29T05:55:30.929Z,73.30
2018-06-29T05:56:33.206Z,73.60
2018-06-29T05:57:35.635Z,73.50
2018-06-29T05:58:37.843Z,73.50
2018-06-29T05:59:40.123Z,73.50
2018-06-29T06:00:42.447Z,73.60
2018-06-29T06:01:44.743Z,73.60
2018-06-29T06:02:47.055Z,73.40
2018-06-29T06:03:49.291Z,73.80
2018-06-29T06:04:51.607Z,73.80
2018-06-29T06:05:53.846Z,73.80
2018-06-29T06:06:56.075Z,73.80
2018-06-29T06:07:58.274Z,73.90
2018-06-29T06:10:10.706Z,74.40
2018-06-29T06:11:12.913Z,73.60
2018-06-29T06:12:15.122Z,73.60
2018-06-29T06:14:19.534Z,73.90
2018-06-29T06:15:21.729Z,73.90
2018-06-29T06:16:23.935Z,74.20
2018-06-29T06:17:26.126Z,74.40
2018-06-29T06:18:28.426Z,74.80
2018-06-29T06:19:42.062Z,75.90
2018-06-29T06:20:44.270Z,74.80
2018-06-29T06:21:46.464Z,74.20
2018-06-29T06:22:48.642Z,74.10
2018-06-29T06:23:50.862Z,74.10
2018-06-29T06:24:53.075Z,74.20
2018-06-29T06:25:55.296Z,74.10
2018-06-29T06:26:57.559Z,74.40
2018-06-29T06:27:59.790Z,74.10
2018-06-29T06:29:02.011Z,74.00
2018-06-29T06:30:04.501Z,73.80
2018-06-29T06:31:06.746Z,73.80
2018-06-29T06:32:08.946Z,73.90
2018-06-29T06:33:11.187Z,73.70
2018-06-29T06:34:13.358Z,73.70
2018-06-29T06:35:15.593Z,73.80
2018-06-29T06:36:17.834Z,73.70
2018-06-29T06:37:20.030Z,74.10
2018-06-29T06:38:22.221Z,74.60
2018-06-29T06:39:24.430Z,74.50
2018-06-29T06:40:26.668Z,74.00
2018-06-29T06:41:29.106Z,73.70
2018-06-29T06:42:31.320Z,73.90
2018-06-29T06:43:33.526Z,74.30
2018-06-29T06:44:35.756Z,73.90
2018-06-29T06:45:37.939Z,73.60
2018-06-29T06:46:40.151Z,73.00
2018-06-29T06:47:42.366Z,73.10
2018-06-29T06:48:44.578Z,73.10
2018-06-29T06:49:46.806Z,72.70
2018-06-29T06:50:49.002Z,72.40
2018-06-29T06:51:51.195Z,72.00
2018-06-29T06:52:53.544Z,70.70
2018-06-29T06:56:07.184Z,70.40
2018-06-29T06:57:09.383Z,70.70
2018-06-29T06:58:11.574Z,69.90
2018-06-29T06:59:13.802Z,69.80
2018-06-29T07:00:16.054Z,69.50
2018-06-29T07:03:22.806Z,69.30
2018-06-29T07:04:24.994Z,68.70
2018-06-29T07:05:27.251Z,68.70
2018-06-29T07:07:31.701Z,69.20
2018-06-29T07:08:33.894Z,68.50
2018-06-29T07:09:36.072Z,68.90
2018-06-29T07:11:40.535Z,68.10
2018-06-29T07:12:42.777Z,67.80
2018-06-29T07:13:45.049Z,67.90
2018-06-29T07:14:47.196Z,68.10
2018-06-29T07:15:49.406Z,67.80
2018-06-29T07:16:51.610Z,67.60
2018-06-29T07:17:53.811Z,68.00
2018-06-29T07:18:55.984Z,67.30
2018-06-29T07:19:58.182Z,66.90
2018-06-29T07:22:02.962Z,66.90
2018-06-29T07:23:05.162Z,67.10
2018-06-29T07:24:07.395Z,67.30
2018-06-29T07:25:09.598Z,67.60
2018-06-29T07:26:11.815Z,67.00
2018-06-29T07:27:14.065Z,67.50
2018-06-29T07:28:16.254Z,67.60
2018-06-29T07:29:18.442Z,67.50
2018-06-29T07:30:20.821Z,67.40
2018-06-29T07:31:23.177Z,67.30
2018-06-29T07:32:25.368Z,67.20
2018-06-29T07:33:27.574Z,67.30
2018-06-29T07:34:29.771Z,67.20
2018-06-29T07:35:31.983Z,67.00
2018-06-29T07:36:34.185Z,66.50
2018-06-29T07:37:36.363Z,66.40
2018-06-29T07:38:38.625Z,66.50
2018-06-29T07:40:43.065Z,67.50
2018-06-29T07:41:45.270Z,67.00
2018-06-29T07:43:49.687Z,67.60
2018-06-29T07:44:51.899Z,66.70
2018-06-29T07:45:54.086Z,66.90
2018-06-29T07:46:56.271Z,66.80
2018-06-29T07:47:58.439Z,66.80
2018-06-29T07:49:00.630Z,67.20
2018-06-29T07:51:05.952Z,67.10
2018-06-29T07:52:08.129Z,67.10
2018-06-29T07:53:10.299Z,67.20
2018-06-29T07:54:12.486Z,66.80
2018-06-29T07:55:14.665Z,66.90
2018-06-29T07:56:16.914Z,66.80
2018-06-29T07:58:21.390Z,67.40
2018-06-29T07:59:23.472Z,66.50
2018-06-29T08:00:25.658Z,66.50
2018-06-29T08:01:27.858Z,66.70
2018-06-29T08:02:30.054Z,66.70
2018-06-29T08:03:33.574Z,66.80
2018-06-29T08:04:35.759Z,67.10
2018-06-29T08:05:37.938Z,66.50
2018-06-29T08:06:40.136Z,66.60
2018-06-29T08:07:42.339Z,66.60
2018-06-29T08:08:44.559Z,66.50
2018-06-29T08:09:46.762Z,66.30
2018-06-29T08:10:48.935Z,65.80
2018-06-29T08:11:51.143Z,65.70
2018-06-29T08:12:53.363Z,65.80
2018-06-29T08:13:55.564Z,65.80
2018-06-29T08:14:57.726Z,66.10
2018-06-29T08:15:59.894Z,66.40
2018-06-29T08:17:02.075Z,66.40
2018-06-29T08:18:04.437Z,65.80
2018-06-29T08:19:06.643Z,65.50
2018-06-29T08:20:08.842Z,65.60
2018-06-29T08:21:11.024Z,65.40
2018-06-29T08:22:13.676Z,65.30
2018-06-29T08:23:15.858Z,65.60
2018-06-29T08:24:18.125Z,65.20
2018-06-29T08:25:20.274Z,65.10
2018-06-29T08:26:25.182Z,65.10
2018-06-29T08:27:27.447Z,65.20
2018-06-29T08:28:29.618Z,65.20
2018-06-29T08:29:31.812Z,65.20
2018-06-29T08:30:34.035Z,66.30
2018-06-29T08:31:36.209Z,66.30
2018-06-29T08:32:38.543Z,66.20
2018-06-29T08:33:40.757Z,65.70
2018-06-29T08:34:43.019Z,65.50
2018-06-29T08:35:45.275Z,65.30
2018-06-29T08:36:47.499Z,65.30
2018-06-29T08:37:49.702Z,65.10
2018-06-29T08:38:51.894Z,65.30
2018-06-29T08:39:54.074Z,65.30
2018-06-29T08:40:56.282Z,65.00
2018-06-29T08:43:00.693Z,65.60
2018-06-29T08:44:03.201Z,65.20
2018-06-29T08:45:06.634Z,65.30
2018-06-29T08:46:08.869Z,65.60
2018-06-29T08:47:11.166Z,65.80
2018-06-29T08:48:13.277Z,65.70
2018-06-29T08:49:15.442Z,65.60
2018-06-29T08:50:17.642Z,65.90
2018-06-29T08:51:19.846Z,65.90
2018-06-29T08:52:22.029Z,65.90
2018-06-29T08:53:24.387Z,65.80
2018-06-29T08:54:26.566Z,65.70
2018-06-29T08:55:28.763Z,65.60
2018-06-29T08:56:30.946Z,65.20
2018-06-29T08:57:33.158Z,65.80
2018-06-29T08:59:37.558Z,66.70
2018-06-29T09:00:39.770Z,65.50
2018-06-29T09:01:41.971Z,65.60
2018-06-29T09:02:44.197Z,65.90
2018-06-29T09:03:46.370Z,65.80
2018-06-29T09:04:48.571Z,65.70
2018-06-29T09:05:50.768Z,66.00
2018-06-29T09:06:52.978Z,66.20
2018-06-29T09:07:55.147Z,66.10
2018-06-29T09:08:57.318Z,66.10
2018-06-29T09:11:01.828Z,66.20
2018-06-29T09:12:04.198Z,65.70
2018-06-29T09:13:06.442Z,65.70
2018-06-29T09:15:10.863Z,65.10
2018-06-29T09:17:15.259Z,65.60
2018-06-29T09:18:17.426Z,65.60
2018-06-29T09:19:19.613Z,65.40
2018-06-29T09:20:21.829Z,65.40
2018-06-29T09:21:24.016Z,65.50
2018-06-29T09:22:26.207Z,65.00
2018-06-29T09:23:28.425Z,64.50
2018-06-29T09:24:30.614Z,64.80
2018-06-29T09:25:32.814Z,64.80
2018-06-29T09:26:35.003Z,64.80
2018-06-29T09:28:39.395Z,64.30
2018-06-29T09:29:41.571Z,63.90
2018-06-29T09:30:43.750Z,64.00
2018-06-29T09:31:46.467Z,63.80
2018-06-29T09:32:48.656Z,63.10
2018-06-29T09:33:50.868Z,63.40
2018-06-29T09:34:53.059Z,63.00
2018-06-29T09:35:55.287Z,63.10
2018-06-29T09:36:57.506Z,62.60
2018-06-29T09:37:59.727Z,62.60
2018-06-29T09:39:02.015Z,62.30
2018-06-29T09:40:04.254Z,62.30
2018-06-29T09:41:06.482Z,62.20
2018-06-29T09:44:13.881Z,62.10
2018-06-29T09:45:16.514Z,62.00
2018-06-29T09:46:18.718Z,61.40
2018-06-29T09:47:21.122Z,61.40
2018-06-29T09:48:23.531Z,61.20
2018-06-29T09:49:25.862Z,61.30
2018-06-29T09:50:28.263Z,61.40
2018-06-29T09:51:30.483Z,61.30
2018-06-29T09:52:32.902Z,61.40
2018-06-29T09:53:35.086Z,62.00
2018-06-29T09:54:37.462Z,62.00
2018-06-29T09:55:39.699Z,61.40
2018-06-29T09:56:42.129Z,61.30
2018-06-29T09:57:44.518Z,62.10
2018-06-29T09:58:46.758Z,61.30
2018-06-29T09:59:49.322Z,61.30
2018-06-29T10:00:55.412Z,62.00
2018-06-29T10:01:53.783Z,61.50
2018-06-29T10:03:59.150Z,61.40
2018-06-29T10:05:01.562Z,62.00
2018-06-29T10:06:03.815Z,61.20
2018-06-29T10:07:06.195Z,61.20
2018-06-29T10:08:08.488Z,61.30
2018-06-29T10:09:11.766Z,62.00
2018-06-29T10:10:13.977Z,62.00
2018-06-29T10:11:16.243Z,62.80
2018-06-29T10:12:19.252Z,62.70
2018-06-29T10:14:24.684Z,62.40
2018-06-29T10:15:27.133Z,62.50
2018-06-29T10:16:29.363Z,61.80
2018-06-29T10:17:32.348Z,61.30
2018-06-29T10:18:34.718Z,61.80
2018-06-29T10:19:36.969Z,61.30
2018-06-29T10:20:39.158Z,61.20
2018-06-29T10:21:41.395Z,62.00
2018-06-29T10:22:43.647Z,61.30
2018-06-29T10:23:46.850Z,61.30
2018-06-29T10:24:49.079Z,61.40
2018-06-29T10:25:51.254Z,61.30
2018-06-29T10:26:53.479Z,61.30
2018-06-29T10:27:55.722Z,60.90
2018-06-29T10:28:57.938Z,60.00
2018-06-29T10:30:00.165Z,60.00
2018-06-29T10:31:02.398Z,60.00
2018-06-29T10:32:04.660Z,60.10
2018-06-29T10:33:06.883Z,59.80
2018-06-29T10:34:09.102Z,59.70
2018-06-29T10:36:13.679Z,60.40
2018-06-29T10:37:15.905Z,60.00
2018-06-29T10:38:18.114Z,59.80
2018-06-29T10:39:20.409Z,59.80
2018-06-29T10:40:22.735Z,59.80
2018-06-29T10:42:27.921Z,58.50
2018-06-29T10:43:30.318Z,57.70
2018-06-29T10:44:32.719Z,57.70
2018-06-29T10:45:35.039Z,57.70
2018-06-29T10:46:37.702Z,57.30
2018-06-29T10:47:40.054Z,57.20
2018-06-29T10:48:42.538Z,57.70
2018-06-29T10:50:47.211Z,57.00
2018-06-29T10:51:49.551Z,57.10
2018-06-29T10:52:51.883Z,57.40
2018-06-29T10:53:54.223Z,57.80
2018-06-29T10:54:56.607Z,57.80
2018-06-29T10:55:58.972Z,57.60
2018-06-29T10:57:01.325Z,57.60
2018-06-29T10:58:03.755Z,57.40
2018-06-29T10:59:06.032Z,57.30
2018-06-29T11:00:08.395Z,56.90
2018-06-29T11:01:10.735Z,57.40
2018-06-29T11:02:13.148Z,57.20
2018-06-29T11:03:15.466Z,56.00
2018-06-29T11:04:17.882Z,56.40
2018-06-29T11:05:20.266Z,56.10
2018-06-29T11:06:22.619Z,56.40
2018-06-29T11:07:25.031Z,56.50
2018-06-29T11:08:27.349Z,55.80
2018-06-29T11:09:29.702Z,56.00
2018-06-29T11:10:32.113Z,56.20
2018-06-29T11:11:34.479Z,55.40
2018-06-29T11:12:36.841Z,55.40
2018-06-29T11:13:39.183Z,55.40
2018-06-29T11:14:41.522Z,55.20
2018-06-29T11:15:43.879Z,55.20
2018-06-29T11:16:46.233Z,55.20
2018-06-29T11:17:48.556Z,55.00
2018-06-29T11:18:50.873Z,55.20
2018-06-29T11:19:53.695Z,54.90
2018-06-29T11:20:56.115Z,54.90
2018-06-29T11:21:58.439Z,54.70
2018-06-29T11:24:03.056Z,54.10
2018-06-29T11:25:05.336Z,54.50
2018-06-29T11:26:07.684Z,54.70
2018-06-29T11:27:10.035Z,54.10
2018-06-29T11:28:12.332Z,54.50
2018-06-29T11:29:14.654Z,54.80
2018-06-29T11:30:17.006Z,54.40
2018-06-29T11:31:19.288Z,54.70
2018-06-29T11:32:21.598Z,54.20
2018-06-29T11:33:23.938Z,54.20
2018-06-29T11:34:26.282Z,54.30
2018-06-29T11:35:28.653Z,54.40
2018-06-29T11:36:30.999Z,54.40
2018-06-29T11:37:33.307Z,54.40
2018-06-29T11:38:35.600Z,53.70
2018-06-29T11:39:37.901Z,53.90
2018-06-29T11:40:40.274Z,54.10
2018-06-29T11:41:42.981Z,54.50
2018-06-29T11:42:45.316Z,54.20
2018-06-29T11:43:47.660Z,53.70
2018-06-29T11:44:50.125Z,53.40
2018-06-29T11:45:52.515Z,53.50
2018-06-29T11:46:54.832Z,53.40
2018-06-29T11:47:57.242Z,53.70
2018-06-29T11:48:59.544Z,53.50
2018-06-29T11:51:04.259Z,52.70
2018-06-29T11:52:06.583Z,52.50
2018-06-29T11:53:08.830Z,52.90
2018-06-29T11:54:11.196Z,52.50
2018-06-29T11:55:13.509Z,52.20
2018-06-29T11:56:15.837Z,52.30
2018-06-29T11:57:18.143Z,52.40
2018-06-29T11:59:22.877Z,52.40
2018-06-29T12:01:27.697Z,52.20
2018-06-29T12:02:30.161Z,52.80
2018-06-29T12:03:32.566Z,52.10
2018-06-29T12:04:34.927Z,51.80
2018-06-29T12:05:37.234Z,52.00
2018-06-29T12:06:39.574Z,52.00
2018-06-29T12:07:41.931Z,51.40
2018-06-29T12:08:44.260Z,51.60
2018-06-29T12:09:46.620Z,51.70
2018-06-29T12:10:48.975Z,51.60
2018-06-29T12:11:51.331Z,51.60
2018-06-29T12:12:53.700Z,51.40
2018-06-29T12:13:56.060Z,51.50
2018-06-29T12:14:58.468Z,50.60
2018-06-29T12:16:00.749Z,50.60
2018-06-29T12:17:03.136Z,50.70
2018-06-29T12:18:05.503Z,50.20
2018-06-29T12:19:07.866Z,50.50
2018-06-29T12:20:10.256Z,50.60
2018-06-29T12:21:12.592Z,50.50
2018-06-29T12:22:14.923Z,50.60
2018-06-29T12:23:17.261Z,50.60
2018-06-29T12:24:19.606Z,50.70
2018-06-29T12:25:21.915Z,50.50
2018-06-29T12:27:26.700Z,50.10
2018-06-29T12:28:29.959Z,49.50
2018-06-29T12:29:32.336Z,48.70
2018-06-29T12:30:34.694Z,47.70
2018-06-29T12:31:37.057Z,47.40
2018-06-29T12:32:39.452Z,48.00
2018-06-29T12:33:41.783Z,48.10
2018-06-29T12:34:44.563Z,48.20
2018-06-29T12:35:46.887Z,48.70
2018-06-29T12:36:49.234Z,48.90
2018-06-29T12:37:51.556Z,49.00
2018-06-29T12:38:53.871Z,49.10
2018-06-29T12:39:56.203Z,49.10
2018-06-29T12:40:58.574Z,48.70
2018-06-29T12:42:00.892Z,46.80
2018-06-29T12:43:03.279Z,47.40
2018-06-29T12:44:05.604Z,47.00
2018-06-29T12:45:07.938Z,47.40
2018-06-29T12:46:10.285Z,47.30
2018-06-29T12:47:12.583Z,47.40
2018-06-29T12:48:14.914Z,47.20
2018-06-29T12:49:17.315Z,46.80
2018-06-29T12:50:19.655Z,46.90
2018-06-29T12:51:21.984Z,47.30
2018-06-29T12:52:24.385Z,47.40
2018-06-29T12:53:26.899Z,47.10
2018-06-29T12:54:29.274Z,46.40
2018-06-29T12:55:31.598Z,46.50
2018-06-29T12:57:36.232Z,46.50
2018-06-29T12:58:38.586Z,46.50
2018-06-29T12:59:40.916Z,46.70
2018-06-29T13:00:43.228Z,46.50
2018-06-29T13:01:45.567Z,46.90
2018-06-29T13:02:47.956Z,46.90
2018-06-29T13:03:50.230Z,46.50
2018-06-29T13:04:52.744Z,47.00
2018-06-29T13:06:57.274Z,46.70
2018-06-29T13:07:59.631Z,47.10
2018-06-29T13:09:01.985Z,46.80
2018-06-29T13:10:04.349Z,46.40
2018-06-29T13:11:06.757Z,46.40
2018-06-29T13:12:09.143Z,46.40
2018-06-29T13:14:13.812Z,46.50
2018-06-29T13:15:16.008Z,46.20
2018-06-29T13:16:18.282Z,46.50
2018-06-29T13:17:20.552Z,46.90
2018-06-29T13:18:22.839Z,47.90
2018-06-29T13:19:25.142Z,47.50
2018-06-29T13:20:28.106Z,47.50
2018-06-29T13:21:31.063Z,47.70
2018-06-29T13:22:33.408Z,47.80
2018-06-29T13:23:35.690Z,48.10
2018-06-29T13:24:37.988Z,47.80
2018-06-29T13:25:40.198Z,47.80
2018-06-29T13:26:42.394Z,47.80
2018-06-29T13:27:44.611Z,47.60
2018-06-29T13:28:46.841Z,47.60
2018-06-29T13:29:49.064Z,46.80
2018-06-29T13:30:51.475Z,46.80
2018-06-29T13:31:53.615Z,47.10
2018-06-29T13:32:55.858Z,47.40
2018-06-29T13:33:58.113Z,47.50
2018-06-29T13:35:00.315Z,46.50
2018-06-29T13:36:02.650Z,47.10
2018-06-29T13:37:04.840Z,47.40
2018-06-29T13:38:07.194Z,46.60
2018-06-29T13:39:10.348Z,45.80
2018-06-29T13:40:12.649Z,46.50
2018-06-29T13:41:14.913Z,46.50
2018-06-29T13:42:17.241Z,46.50
2018-06-29T13:43:19.537Z,46.60
2018-06-29T13:44:21.772Z,46.60
2018-06-29T13:46:26.215Z,45.80
2018-06-29T13:47:28.518Z,45.80
2018-06-29T13:48:30.771Z,45.90
2018-06-29T13:49:33.015Z,45.70
2018-06-29T13:50:35.244Z,43.80
2018-06-29T13:51:37.662Z,44.40
2018-06-29T13:52:39.912Z,44.30
2018-06-29T13:53:42.223Z,43.40
2018-06-29T13:54:44.531Z,43.60
2018-06-29T13:55:46.732Z,43.80
2018-06-29T13:56:49.008Z,44.10
2018-06-29T13:57:51.275Z,44.40
2018-06-29T13:58:53.512Z,44.20
2018-06-29T13:59:55.765Z,43.90
2018-06-29T14:00:58.033Z,43.90
2018-06-29T14:03:02.515Z,43.80
2018-06-29T14:04:04.744Z,44.00
2018-06-29T14:05:07.035Z,44.20
2018-06-29T14:06:09.270Z,45.10
2018-06-29T14:07:11.491Z,45.60
2018-06-29T14:08:13.844Z,45.10
2018-06-29T14:09:16.055Z,44.90
2018-06-29T14:10:18.284Z,45.30
2018-06-29T14:11:20.560Z,45.10
2018-06-29T14:12:22.856Z,44.60
2018-06-29T14:13:25.104Z,44.50
2018-06-29T14:14:27.326Z,44.60
2018-06-29T14:15:29.714Z,44.20
2018-06-29T14:16:31.926Z,44.30
2018-06-29T14:18:36.363Z,44.30
2018-06-29T14:19:38.562Z,44.40
2018-06-29T14:20:40.782Z,44.50